sensor_id;sensor_type;location;lat;lon;timestamp;P1;durP1;ratioP1;P2;durP2;ratioP2
46931;SDS011;32670;51.464;11.964;2023-08-12T00:01:30;2.90;;;2.30;;
46931;SDS011;32670;51.464;11.964;2023-08-12T00:03:55;4.37;;;2.33;;
46931;SDS011;32670;51.464;11.964;2023-08-12T00:06:21;4.87;;;2.30;;
46931;SDS011;32670;51.464;11.964;2023-08-12T00:08:46;4.20;;;2.43;;
46931;SDS011;32670;51.464;11.964;2023-08-12T00:11:12;4.50;;;2.47;;
46931;SDS011;32670;51.464;11.964;2023-08-12T00:13:37;4.30;;;2.30;;
46931;SDS011;32670;51.464;11.964;2023-08-12T00:16:03;5.13;;;2.30;;
46931;SDS011;32670;51.464;11.964;2023-08-12T00:18:28;2.93;;;2.17;;
46931;SDS011;32670;51.464;11.964;2023-08-12T00:20:54;3.10;;;2.00;;
46931;SDS011;32670;51.464;11.964;2023-08-12T00:23:20;4.87;;;2.07;;
46931;SDS011;32670;51.464;11.964;2023-08-12T00:25:45;3.10;;;2.33;;
46931;SDS011;32670;51.464;11.964;2023-08-12T00:28:11;2.40;;;2.13;;
46931;SDS011;32670;51.464;11.964;2023-08-12T00:30:37;2.67;;;2.17;;
46931;SDS011;32670;51.464;11.964;2023-08-12T00:33:03;2.40;;;2.10;;
46931;SDS011;32670;51.464;11.964;2023-08-12T00:35:29;2.43;;;2.00;;
46931;SDS011;32670;51.464;11.964;2023-08-12T00:37:54;5.07;;;2.30;;
46931;SDS011;32670;51.464;11.964;2023-08-12T00:40:20;3.93;;;2.30;;
46931;SDS011;32670;51.464;11.964;2023-08-12T00:42:45;3.90;;;2.13;;
46931;SDS011;32670;51.464;11.964;2023-08-12T00:45:11;2.53;;;2.17;;
46931;SDS011;32670;51.464;11.964;2023-08-12T00:47:38;2.67;;;2.00;;
46931;SDS011;32670;51.464;11.964;2023-08-12T00:50:04;4.23;;;2.50;;
46931;SDS011;32670;51.464;11.964;2023-08-12T00:52:31;2.83;;;2.30;;
46931;SDS011;32670;51.464;11.964;2023-08-12T00:54:56;2.50;;;2.20;;
46931;SDS011;32670;51.464;11.964;2023-08-12T00:57:22;2.80;;;1.90;;
46931;SDS011;32670;51.464;11.964;2023-08-12T00:59:47;2.50;;;2.30;;
46931;SDS011;32670;51.464;11.964;2023-08-12T01:02:14;4.87;;;2.10;;
46931;SDS011;32670;51.464;11.964;2023-08-12T01:04:39;8.37;;;2.50;;
46931;SDS011;32670;51.464;11.964;2023-08-12T01:07:05;2.10;;;1.90;;
46931;SDS011;32670;51.464;11.964;2023-08-12T01:09:31;3.00;;;2.10;;
46931;SDS011;32670;51.464;11.964;2023-08-12T01:17:11;5.43;;;2.17;;
46931;SDS011;32670;51.464;11.964;2023-08-12T01:19:39;2.93;;;2.20;;
46931;SDS011;32670;51.464;11.964;2023-08-12T01:22:10;2.53;;;2.20;;
46931;SDS011;32670;51.464;11.964;2023-08-12T01:24:38;3.50;;;2.40;;
46931;SDS011;32670;51.464;11.964;2023-08-12T01:27:05;4.57;;;2.43;;
46931;SDS011;32670;51.464;11.964;2023-08-12T01:29:32;5.30;;;2.20;;
46931;SDS011;32670;51.464;11.964;2023-08-12T01:32:03;3.97;;;2.13;;
46931;SDS011;32670;51.464;11.964;2023-08-12T01:34:47;4.10;;;2.40;;
46931;SDS011;32670;51.464;11.964;2023-08-12T01:37:28;5.30;;;2.03;;
46931;SDS011;32670;51.464;11.964;2023-08-12T01:39:54;4.67;;;2.03;;
46931;SDS011;32670;51.464;11.964;2023-08-12T01:42:23;3.20;;;2.37;;
46931;SDS011;32670;51.464;11.964;2023-08-12T01:44:50;2.70;;;2.30;;
46931;SDS011;32670;51.464;11.964;2023-08-12T01:47:15;3.40;;;2.30;;
46931;SDS011;32670;51.464;11.964;2023-08-12T01:49:41;4.57;;;2.53;;
46931;SDS011;32670;51.464;11.964;2023-08-12T01:52:06;4.00;;;2.53;;
46931;SDS011;32670;51.464;11.964;2023-08-12T01:54:33;3.10;;;2.30;;
46931;SDS011;32670;51.464;11.964;2023-08-12T01:57:03;3.60;;;2.60;;
46931;SDS011;32670;51.464;11.964;2023-08-12T01:59:33;4.00;;;2.20;;
46931;SDS011;32670;51.464;11.964;2023-08-12T02:02:01;4.93;;;2.80;;
46931;SDS011;32670;51.464;11.964;2023-08-12T02:04:27;4.87;;;2.20;;
46931;SDS011;32670;51.464;11.964;2023-08-12T02:06:53;4.10;;;2.23;;
46931;SDS011;32670;51.464;11.964;2023-08-12T02:09:19;5.80;;;2.37;;
46931;SDS011;32670;51.464;11.964;2023-08-12T02:11:45;2.93;;;2.40;;
46931;SDS011;32670;51.464;11.964;2023-08-12T02:14:10;2.93;;;2.20;;
46931;SDS011;32670;51.464;11.964;2023-08-12T02:16:36;3.47;;;2.20;;
46931;SDS011;32670;51.464;11.964;2023-08-12T02:19:01;2.90;;;2.17;;
46931;SDS011;32670;51.464;11.964;2023-08-12T02:21:27;4.83;;;2.40;;
46931;SDS011;32670;51.464;11.964;2023-08-12T02:23:53;3.27;;;2.30;;
46931;SDS011;32670;51.464;11.964;2023-08-12T02:26:18;4.83;;;2.30;;
46931;SDS011;32670;51.464;11.964;2023-08-12T02:28:44;3.43;;;2.50;;
46931;SDS011;32670;51.464;11.964;2023-08-12T02:31:09;7.97;;;2.47;;
46931;SDS011;32670;51.464;11.964;2023-08-12T02:33:35;3.70;;;2.67;;
46931;SDS011;32670;51.464;11.964;2023-08-12T02:36:00;4.30;;;2.50;;
46931;SDS011;32670;51.464;11.964;2023-08-12T02:38:26;4.50;;;2.53;;
46931;SDS011;32670;51.464;11.964;2023-08-12T02:40:51;3.80;;;2.50;;
46931;SDS011;32670;51.464;11.964;2023-08-12T02:43:17;2.60;;;2.40;;
46931;SDS011;32670;51.464;11.964;2023-08-12T02:45:42;4.50;;;2.90;;
46931;SDS011;32670;51.464;11.964;2023-08-12T02:48:11;4.60;;;2.43;;
46931;SDS011;32670;51.464;11.964;2023-08-12T02:50:37;7.00;;;2.70;;
46931;SDS011;32670;51.464;11.964;2023-08-12T02:53:03;3.43;;;2.60;;
46931;SDS011;32670;51.464;11.964;2023-08-12T02:55:29;5.50;;;2.70;;
46931;SDS011;32670;51.464;11.964;2023-08-12T02:57:56;6.93;;;2.43;;
46931;SDS011;32670;51.464;11.964;2023-08-12T03:00:22;3.80;;;2.40;;
46931;SDS011;32670;51.464;11.964;2023-08-12T03:02:48;2.90;;;2.60;;
46931;SDS011;32670;51.464;11.964;2023-08-12T03:05:13;9.17;;;2.77;;
46931;SDS011;32670;51.464;11.964;2023-08-12T03:07:39;4.23;;;2.60;;
46931;SDS011;32670;51.464;11.964;2023-08-12T03:10:05;3.03;;;2.20;;
46931;SDS011;32670;51.464;11.964;2023-08-12T03:12:30;4.70;;;2.70;;
46931;SDS011;32670;51.464;11.964;2023-08-12T03:14:56;2.40;;;2.10;;
46931;SDS011;32670;51.464;11.964;2023-08-12T03:17:21;5.10;;;2.90;;
46931;SDS011;32670;51.464;11.964;2023-08-12T03:19:47;5.50;;;2.73;;
46931;SDS011;32670;51.464;11.964;2023-08-12T03:22:13;4.53;;;2.30;;
46931;SDS011;32670;51.464;11.964;2023-08-12T03:24:38;3.40;;;2.50;;
46931;SDS011;32670;51.464;11.964;2023-08-12T03:27:04;4.47;;;2.67;;
46931;SDS011;32670;51.464;11.964;2023-08-12T03:29:29;4.23;;;2.30;;
46931;SDS011;32670;51.464;11.964;2023-08-12T03:31:55;4.03;;;2.37;;
46931;SDS011;32670;51.464;11.964;2023-08-12T03:34:20;4.73;;;2.70;;
46931;SDS011;32670;51.464;11.964;2023-08-12T03:36:46;4.33;;;2.60;;
46931;SDS011;32670;51.464;11.964;2023-08-12T03:39:13;4.97;;;2.80;;
46931;SDS011;32670;51.464;11.964;2023-08-12T03:41:39;3.77;;;2.53;;
46931;SDS011;32670;51.464;11.964;2023-08-12T03:44:04;4.53;;;2.80;;
46931;SDS011;32670;51.464;11.964;2023-08-12T03:46:30;5.13;;;2.60;;
46931;SDS011;32670;51.464;11.964;2023-08-12T03:48:56;3.03;;;2.73;;
46931;SDS011;32670;51.464;11.964;2023-08-12T03:51:21;4.87;;;2.87;;
46931;SDS011;32670;51.464;11.964;2023-08-12T03:53:47;6.80;;;2.67;;
46931;SDS011;32670;51.464;11.964;2023-08-12T03:56:12;3.67;;;2.67;;
46931;SDS011;32670;51.464;11.964;2023-08-12T03:58:40;5.60;;;2.70;;
46931;SDS011;32670;51.464;11.964;2023-08-12T04:01:06;5.40;;;2.50;;
46931;SDS011;32670;51.464;11.964;2023-08-12T04:03:31;4.57;;;2.80;;
46931;SDS011;32670;51.464;11.964;2023-08-12T04:05:56;6.57;;;2.80;;
46931;SDS011;32670;51.464;11.964;2023-08-12T04:08:23;6.20;;;2.90;;
46931;SDS011;32670;51.464;11.964;2023-08-12T04:10:49;3.00;;;2.70;;
46931;SDS011;32670;51.464;11.964;2023-08-12T04:13:15;5.20;;;2.70;;
46931;SDS011;32670;51.464;11.964;2023-08-12T04:15:41;7.27;;;3.10;;
46931;SDS011;32670;51.464;11.964;2023-08-12T04:18:07;4.43;;;2.57;;
46931;SDS011;32670;51.464;11.964;2023-08-12T04:20:32;3.13;;;2.50;;
46931;SDS011;32670;51.464;11.964;2023-08-12T04:22:58;5.83;;;3.00;;
46931;SDS011;32670;51.464;11.964;2023-08-12T04:25:23;3.27;;;2.77;;
46931;SDS011;32670;51.464;11.964;2023-08-12T04:27:49;4.60;;;2.83;;
46931;SDS011;32670;51.464;11.964;2023-08-12T04:30:18;4.67;;;2.87;;
46931;SDS011;32670;51.464;11.964;2023-08-12T04:32:44;3.83;;;2.40;;
46931;SDS011;32670;51.464;11.964;2023-08-12T04:35:09;4.13;;;2.77;;
46931;SDS011;32670;51.464;11.964;2023-08-12T04:37:35;6.13;;;2.70;;
46931;SDS011;32670;51.464;11.964;2023-08-12T04:40:01;3.93;;;2.60;;
46931;SDS011;32670;51.464;11.964;2023-08-12T04:42:29;7.47;;;3.00;;
46931;SDS011;32670;51.464;11.964;2023-08-12T04:44:55;4.43;;;2.50;;
46931;SDS011;32670;51.464;11.964;2023-08-12T04:47:20;4.37;;;2.70;;
46931;SDS011;32670;51.464;11.964;2023-08-12T04:49:46;3.23;;;2.93;;
46931;SDS011;32670;51.464;11.964;2023-08-12T04:52:11;3.47;;;2.70;;
46931;SDS011;32670;51.464;11.964;2023-08-12T04:54:37;5.53;;;2.40;;
46931;SDS011;32670;51.464;11.964;2023-08-12T04:57:02;3.40;;;2.63;;
46931;SDS011;32670;51.464;11.964;2023-08-12T04:59:28;3.33;;;2.90;;
46931;SDS011;32670;51.464;11.964;2023-08-12T05:01:53;5.60;;;2.80;;
46931;SDS011;32670;51.464;11.964;2023-08-12T05:04:19;3.37;;;2.50;;
46931;SDS011;32670;51.464;11.964;2023-08-12T05:06:44;3.90;;;2.67;;
46931;SDS011;32670;51.464;11.964;2023-08-12T05:09:10;4.40;;;2.87;;
46931;SDS011;32670;51.464;11.964;2023-08-12T05:11:35;4.43;;;2.80;;
46931;SDS011;32670;51.464;11.964;2023-08-12T05:14:01;7.83;;;3.30;;
46931;SDS011;32670;51.464;11.964;2023-08-12T05:16:26;3.37;;;2.67;;
46931;SDS011;32670;51.464;11.964;2023-08-12T05:18:53;6.97;;;2.77;;
46931;SDS011;32670;51.464;11.964;2023-08-12T05:21:19;12.17;;;2.80;;
46931;SDS011;32670;51.464;11.964;2023-08-12T05:23:45;4.17;;;2.97;;
46931;SDS011;32670;51.464;11.964;2023-08-12T05:26:10;6.50;;;2.80;;
46931;SDS011;32670;51.464;11.964;2023-08-12T05:28:36;4.37;;;2.57;;
46931;SDS011;32670;51.464;11.964;2023-08-12T05:31:01;6.67;;;3.07;;
46931;SDS011;32670;51.464;11.964;2023-08-12T05:33:26;3.00;;;2.70;;
46931;SDS011;32670;51.464;11.964;2023-08-12T05:35:52;3.73;;;3.00;;
46931;SDS011;32670;51.464;11.964;2023-08-12T05:38:17;3.80;;;2.70;;
46931;SDS011;32670;51.464;11.964;2023-08-12T05:40:43;4.00;;;3.13;;
46931;SDS011;32670;51.464;11.964;2023-08-12T05:43:08;4.23;;;2.80;;
46931;SDS011;32670;51.464;11.964;2023-08-12T05:45:34;4.77;;;3.07;;
46931;SDS011;32670;51.464;11.964;2023-08-12T05:47:59;4.40;;;3.00;;
46931;SDS011;32670;51.464;11.964;2023-08-12T05:50:25;4.93;;;2.90;;
46931;SDS011;32670;51.464;11.964;2023-08-12T05:52:50;5.23;;;3.30;;
46931;SDS011;32670;51.464;11.964;2023-08-12T05:55:16;4.50;;;3.10;;
46931;SDS011;32670;51.464;11.964;2023-08-12T05:57:41;7.63;;;2.77;;
46931;SDS011;32670;51.464;11.964;2023-08-12T06:00:07;5.47;;;2.73;;
46931;SDS011;32670;51.464;11.964;2023-08-12T06:02:33;7.13;;;2.80;;
46931;SDS011;32670;51.464;11.964;2023-08-12T06:04:58;3.73;;;2.90;;
46931;SDS011;32670;51.464;11.964;2023-08-12T06:07:24;3.67;;;3.00;;
46931;SDS011;32670;51.464;11.964;2023-08-12T06:09:49;6.67;;;2.73;;
46931;SDS011;32670;51.464;11.964;2023-08-12T06:12:15;3.10;;;2.80;;
46931;SDS011;32670;51.464;11.964;2023-08-12T06:14:41;2.97;;;2.67;;
46931;SDS011;32670;51.464;11.964;2023-08-12T06:17:06;4.33;;;2.83;;
46931;SDS011;32670;51.464;11.964;2023-08-12T06:19:32;5.00;;;3.10;;
46931;SDS011;32670;51.464;11.964;2023-08-12T06:21:58;4.30;;;2.77;;
46931;SDS011;32670;51.464;11.964;2023-08-12T06:24:24;3.00;;;2.70;;
46931;SDS011;32670;51.464;11.964;2023-08-12T06:26:49;5.50;;;2.70;;
46931;SDS011;32670;51.464;11.964;2023-08-12T06:29:14;3.70;;;3.10;;
46931;SDS011;32670;51.464;11.964;2023-08-12T06:31:40;4.40;;;3.17;;
46931;SDS011;32670;51.464;11.964;2023-08-12T06:34:06;5.50;;;3.10;;
46931;SDS011;32670;51.464;11.964;2023-08-12T06:36:32;6.87;;;3.37;;
46931;SDS011;32670;51.464;11.964;2023-08-12T06:38:57;11.60;;;3.67;;
46931;SDS011;32670;51.464;11.964;2023-08-12T06:41:23;6.07;;;3.20;;
46931;SDS011;32670;51.464;11.964;2023-08-12T06:43:48;6.90;;;3.40;;
46931;SDS011;32670;51.464;11.964;2023-08-12T06:46:14;7.40;;;3.43;;
46931;SDS011;32670;51.464;11.964;2023-08-12T06:48:39;13.13;;;3.83;;
46931;SDS011;32670;51.464;11.964;2023-08-12T06:51:04;10.03;;;3.23;;
46931;SDS011;32670;51.464;11.964;2023-08-12T06:53:35;6.30;;;3.43;;
46931;SDS011;32670;51.464;11.964;2023-08-12T06:56:02;9.20;;;3.43;;
46931;SDS011;32670;51.464;11.964;2023-08-12T06:58:27;6.10;;;3.30;;
46931;SDS011;32670;51.464;11.964;2023-08-12T07:00:53;6.90;;;3.47;;
46931;SDS011;32670;51.464;11.964;2023-08-12T07:03:19;7.23;;;3.30;;
46931;SDS011;32670;51.464;11.964;2023-08-12T07:05:44;7.00;;;3.50;;
46931;SDS011;32670;51.464;11.964;2023-08-12T07:08:10;8.77;;;3.23;;
46931;SDS011;32670;51.464;11.964;2023-08-12T07:10:38;8.13;;;2.97;;
46931;SDS011;32670;51.464;11.964;2023-08-12T07:13:05;4.57;;;3.17;;
46931;SDS011;32670;51.464;11.964;2023-08-12T07:15:30;5.30;;;3.23;;
46931;SDS011;32670;51.464;11.964;2023-08-12T07:17:56;6.47;;;3.50;;
46931;SDS011;32670;51.464;11.964;2023-08-12T07:20:22;3.93;;;3.10;;
46931;SDS011;32670;51.464;11.964;2023-08-12T07:22:49;5.27;;;2.90;;
46931;SDS011;32670;51.464;11.964;2023-08-12T07:25:14;8.13;;;3.70;;
46931;SDS011;32670;51.464;11.964;2023-08-12T07:27:40;8.90;;;3.47;;
46931;SDS011;32670;51.464;11.964;2023-08-12T07:30:06;5.23;;;3.27;;
46931;SDS011;32670;51.464;11.964;2023-08-12T07:32:32;3.00;;;2.80;;
46931;SDS011;32670;51.464;11.964;2023-08-12T07:34:58;7.73;;;3.37;;
46931;SDS011;32670;51.464;11.964;2023-08-12T07:37:24;5.47;;;3.40;;
46931;SDS011;32670;51.464;11.964;2023-08-12T07:39:50;7.07;;;3.30;;
46931;SDS011;32670;51.464;11.964;2023-08-12T07:42:15;3.57;;;3.20;;
46931;SDS011;32670;51.464;11.964;2023-08-12T07:44:41;4.63;;;3.43;;
46931;SDS011;32670;51.464;11.964;2023-08-12T07:47:06;3.33;;;3.03;;
46931;SDS011;32670;51.464;11.964;2023-08-12T07:49:32;3.60;;;3.30;;
46931;SDS011;32670;51.464;11.964;2023-08-12T07:51:57;3.10;;;2.90;;
46931;SDS011;32670;51.464;11.964;2023-08-12T07:54:23;4.83;;;3.40;;
46931;SDS011;32670;51.464;11.964;2023-08-12T07:56:48;3.80;;;3.30;;
46931;SDS011;32670;51.464;11.964;2023-08-12T07:59:14;3.20;;;2.90;;
46931;SDS011;32670;51.464;11.964;2023-08-12T08:01:41;4.17;;;3.37;;
46931;SDS011;32670;51.464;11.964;2023-08-12T08:04:06;5.30;;;3.23;;
46931;SDS011;32670;51.464;11.964;2023-08-12T08:06:32;3.20;;;2.90;;
46931;SDS011;32670;51.464;11.964;2023-08-12T08:08:57;5.00;;;3.00;;
46931;SDS011;32670;51.464;11.964;2023-08-12T08:11:24;3.77;;;3.43;;
46931;SDS011;32670;51.464;11.964;2023-08-12T08:13:49;3.33;;;3.00;;
46931;SDS011;32670;51.464;11.964;2023-08-12T08:16:15;3.20;;;2.90;;
46931;SDS011;32670;51.464;11.964;2023-08-12T08:18:40;4.63;;;3.17;;
46931;SDS011;32670;51.464;11.964;2023-08-12T08:21:06;4.97;;;3.47;;
46931;SDS011;32670;51.464;11.964;2023-08-12T08:23:31;4.87;;;3.03;;
46931;SDS011;32670;51.464;11.964;2023-08-12T08:25:57;3.50;;;3.20;;
46931;SDS011;32670;51.464;11.964;2023-08-12T08:28:22;3.30;;;3.00;;
46931;SDS011;32670;51.464;11.964;2023-08-12T08:30:48;3.70;;;3.13;;
46931;SDS011;32670;51.464;11.964;2023-08-12T08:33:13;3.97;;;2.80;;
46931;SDS011;32670;51.464;11.964;2023-08-12T08:35:39;4.67;;;2.90;;
46931;SDS011;32670;51.464;11.964;2023-08-12T08:38:04;3.43;;;3.00;;
46931;SDS011;32670;51.464;11.964;2023-08-12T08:40:30;3.30;;;3.00;;
46931;SDS011;32670;51.464;11.964;2023-08-12T08:42:56;3.37;;;2.90;;
46931;SDS011;32670;51.464;11.964;2023-08-12T08:45:24;3.20;;;2.90;;
46931;SDS011;32670;51.464;11.964;2023-08-12T08:47:51;4.13;;;3.27;;
46931;SDS011;32670;51.464;11.964;2023-08-12T08:50:17;3.40;;;3.10;;
46931;SDS011;32670;51.464;11.964;2023-08-12T08:52:43;3.63;;;3.00;;
46931;SDS011;32670;51.464;11.964;2023-08-12T08:55:08;3.30;;;3.00;;
46931;SDS011;32670;51.464;11.964;2023-08-12T08:57:34;3.57;;;3.00;;
46931;SDS011;32670;51.464;11.964;2023-08-12T09:00:00;3.70;;;3.40;;
46931;SDS011;32670;51.464;11.964;2023-08-12T09:02:26;4.83;;;3.43;;
46931;SDS011;32670;51.464;11.964;2023-08-12T09:04:52;4.07;;;3.07;;
46931;SDS011;32670;51.464;11.964;2023-08-12T09:07:18;3.40;;;3.10;;
46931;SDS011;32670;51.464;11.964;2023-08-12T09:09:46;3.20;;;2.90;;
46931;SDS011;32670;51.464;11.964;2023-08-12T09:12:13;4.20;;;2.93;;
46931;SDS011;32670;51.464;11.964;2023-08-12T09:14:40;3.10;;;2.80;;
46931;SDS011;32670;51.464;11.964;2023-08-12T09:17:07;3.53;;;3.17;;
46931;SDS011;32670;51.464;11.964;2023-08-12T09:19:32;4.07;;;3.10;;
46931;SDS011;32670;51.464;11.964;2023-08-12T09:21:58;3.43;;;3.13;;
46931;SDS011;32670;51.464;11.964;2023-08-12T09:24:27;5.07;;;3.30;;
46931;SDS011;32670;51.464;11.964;2023-08-12T09:26:53;3.40;;;3.10;;
46931;SDS011;32670;51.464;11.964;2023-08-12T09:29:23;3.60;;;3.13;;
46931;SDS011;32670;51.464;11.964;2023-08-12T09:31:53;4.60;;;3.27;;
46931;SDS011;32670;51.464;11.964;2023-08-12T09:34:19;4.53;;;3.30;;
46931;SDS011;32670;51.464;11.964;2023-08-12T09:36:45;3.50;;;3.20;;
46931;SDS011;32670;51.464;11.964;2023-08-12T09:39:12;3.23;;;2.93;;
46931;SDS011;32670;51.464;11.964;2023-08-12T09:41:38;3.53;;;3.20;;
46931;SDS011;32670;51.464;11.964;2023-08-12T09:44:04;3.43;;;3.07;;
46931;SDS011;32670;51.464;11.964;2023-08-12T09:46:32;4.20;;;3.17;;
46931;SDS011;32670;51.464;11.964;2023-08-12T09:48:58;3.87;;;3.47;;
46931;SDS011;32670;51.464;11.964;2023-08-12T09:51:24;4.80;;;3.90;;
46931;SDS011;32670;51.464;11.964;2023-08-12T09:53:51;4.20;;;3.80;;
46931;SDS011;32670;51.464;11.964;2023-08-12T09:56:22;3.53;;;3.23;;
46931;SDS011;32670;51.464;11.964;2023-08-12T09:58:49;3.83;;;3.53;;
46931;SDS011;32670;51.464;11.964;2023-08-12T10:01:20;3.60;;;3.30;;
46931;SDS011;32670;51.464;11.964;2023-08-12T10:03:48;4.23;;;3.60;;
46931;SDS011;32670;51.464;11.964;2023-08-12T10:06:15;5.10;;;3.70;;
46931;SDS011;32670;51.464;11.964;2023-08-12T10:08:41;4.13;;;3.73;;
46931;SDS011;32670;51.464;11.964;2023-08-12T10:11:07;4.50;;;3.90;;
46931;SDS011;32670;51.464;11.964;2023-08-12T10:13:34;4.13;;;3.83;;
46931;SDS011;32670;51.464;11.964;2023-08-12T10:16:00;3.77;;;3.37;;
46931;SDS011;32670;51.464;11.964;2023-08-12T10:18:27;5.00;;;3.33;;
46931;SDS011;32670;51.464;11.964;2023-08-12T10:20:54;3.97;;;3.67;;
46931;SDS011;32670;51.464;11.964;2023-08-12T10:23:24;3.67;;;3.37;;
46931;SDS011;32670;51.464;11.964;2023-08-12T10:25:50;3.50;;;3.20;;
46931;SDS011;32670;51.464;11.964;2023-08-12T10:28:19;4.30;;;3.97;;
46931;SDS011;32670;51.464;11.964;2023-08-12T10:30:45;3.73;;;3.43;;
46931;SDS011;32670;51.464;11.964;2023-08-12T10:33:11;4.10;;;3.70;;
46931;SDS011;32670;51.464;11.964;2023-08-12T10:38:08;3.90;;;3.60;;
46931;SDS011;32670;51.464;11.964;2023-08-12T10:40:33;3.77;;;3.47;;
46931;SDS011;32670;51.464;11.964;2023-08-12T10:42:59;3.60;;;3.30;;
46931;SDS011;32670;51.464;11.964;2023-08-12T10:45:24;3.80;;;3.50;;
46931;SDS011;32670;51.464;11.964;2023-08-12T10:48:18;3.90;;;3.60;;
46931;SDS011;32670;51.464;11.964;2023-08-12T10:50:48;5.40;;;3.70;;
46931;SDS011;32670;51.464;11.964;2023-08-12T10:56:01;3.93;;;3.63;;
46931;SDS011;32670;51.464;11.964;2023-08-12T10:59:01;4.07;;;3.57;;
46931;SDS011;32670;51.464;11.964;2023-08-12T11:01:19;4.37;;;4.00;;
46931;SDS011;32670;51.464;11.964;2023-08-12T11:03:45;4.07;;;3.77;;
46931;SDS011;32670;51.464;11.964;2023-08-12T11:06:12;4.30;;;3.90;;
46931;SDS011;32670;51.464;11.964;2023-08-12T11:08:47;4.20;;;3.80;;
46931;SDS011;32670;51.464;11.964;2023-08-12T11:11:21;3.90;;;3.57;;
46931;SDS011;32670;51.464;11.964;2023-08-12T11:13:54;3.80;;;3.50;;
46931;SDS011;32670;51.464;11.964;2023-08-12T11:16:30;5.27;;;4.03;;
46931;SDS011;32670;51.464;11.964;2023-08-12T11:18:59;4.30;;;3.90;;
46931;SDS011;32670;51.464;11.964;2023-08-12T11:21:25;4.60;;;4.20;;
46931;SDS011;32670;51.464;11.964;2023-08-12T11:23:51;4.40;;;4.00;;
46931;SDS011;32670;51.464;11.964;2023-08-12T11:26:19;5.97;;;4.00;;
46931;SDS011;32670;51.464;11.964;2023-08-12T11:28:48;4.63;;;4.23;;
46931;SDS011;32670;51.464;11.964;2023-08-12T11:31:13;4.40;;;4.00;;
46931;SDS011;32670;51.464;11.964;2023-08-12T11:33:39;4.97;;;4.27;;
46931;SDS011;32670;51.464;11.964;2023-08-12T11:36:04;4.57;;;4.20;;
46931;SDS011;32670;51.464;11.964;2023-08-12T11:38:30;4.63;;;4.23;;
46931;SDS011;32670;51.464;11.964;2023-08-12T11:40:56;4.73;;;4.33;;
46931;SDS011;32670;51.464;11.964;2023-08-12T11:43:25;4.20;;;3.90;;
46931;SDS011;32670;51.464;11.964;2023-08-12T11:45:51;4.80;;;4.40;;
46931;SDS011;32670;51.464;11.964;2023-08-12T11:48:16;4.83;;;4.43;;
46931;SDS011;32670;51.464;11.964;2023-08-12T11:50:42;4.67;;;4.27;;
46931;SDS011;32670;51.464;11.964;2023-08-12T11:53:07;4.83;;;4.43;;
46931;SDS011;32670;51.464;11.964;2023-08-12T11:55:33;5.30;;;4.80;;
46931;SDS011;32670;51.464;11.964;2023-08-12T11:57:59;4.83;;;4.43;;
46931;SDS011;32670;51.464;11.964;2023-08-12T12:00:24;5.77;;;5.00;;
46931;SDS011;32670;51.464;11.964;2023-08-12T12:02:51;5.23;;;4.83;;
46931;SDS011;32670;51.464;11.964;2023-08-12T12:05:20;5.20;;;4.80;;
46931;SDS011;32670;51.464;11.964;2023-08-12T12:07:47;5.43;;;5.00;;
46931;SDS011;32670;51.464;11.964;2023-08-12T12:10:16;5.40;;;4.90;;
46931;SDS011;32670;51.464;11.964;2023-08-12T12:12:56;5.73;;;5.23;;
46931;SDS011;32670;51.464;11.964;2023-08-12T12:15:22;5.60;;;5.10;;
46931;SDS011;32670;51.464;11.964;2023-08-12T12:17:49;6.23;;;5.67;;
46931;SDS011;32670;51.464;11.964;2023-08-12T12:20:15;6.80;;;6.20;;
46931;SDS011;32670;51.464;11.964;2023-08-12T12:22:41;6.40;;;5.80;;
46931;SDS011;32670;51.464;11.964;2023-08-12T12:25:11;6.60;;;6.00;;
46931;SDS011;32670;51.464;11.964;2023-08-12T12:27:39;6.83;;;6.20;;
46931;SDS011;32670;51.464;11.964;2023-08-12T12:30:10;6.73;;;6.13;;
46931;SDS011;32670;51.464;11.964;2023-08-12T12:32:37;6.63;;;6.03;;
46931;SDS011;32670;51.464;11.964;2023-08-12T12:35:03;6.30;;;5.80;;
46931;SDS011;32670;51.464;11.964;2023-08-12T12:37:29;6.83;;;6.23;;
46931;SDS011;32670;51.464;11.964;2023-08-12T12:39:55;6.67;;;6.17;;
46931;SDS011;32670;51.464;11.964;2023-08-12T12:42:21;6.87;;;6.27;;
46931;SDS011;32670;51.464;11.964;2023-08-12T12:44:46;6.90;;;6.30;;
46931;SDS011;32670;51.464;11.964;2023-08-12T12:47:12;6.63;;;6.00;;
46931;SDS011;32670;51.464;11.964;2023-08-12T12:49:40;7.30;;;6.70;;
46931;SDS011;32670;51.464;11.964;2023-08-12T12:52:09;6.47;;;5.97;;
46931;SDS011;32670;51.464;11.964;2023-08-12T12:54:34;6.77;;;6.17;;
46931;SDS011;32670;51.464;11.964;2023-08-12T12:57:00;6.70;;;6.20;;
46931;SDS011;32670;51.464;11.964;2023-08-12T12:59:26;7.50;;;6.77;;
46931;SDS011;32670;51.464;11.964;2023-08-12T13:01:52;6.93;;;6.33;;
46931;SDS011;32670;51.464;11.964;2023-08-12T13:04:17;7.67;;;6.97;;
46931;SDS011;32670;51.464;11.964;2023-08-12T13:06:43;7.00;;;6.40;;
46931;SDS011;32670;51.464;11.964;2023-08-12T13:09:08;7.03;;;6.43;;
46931;SDS011;32670;51.464;11.964;2023-08-12T13:11:34;7.60;;;6.90;;
46931;SDS011;32670;51.464;11.964;2023-08-12T13:14:00;7.43;;;6.83;;
46931;SDS011;32670;51.464;11.964;2023-08-12T13:16:26;7.00;;;6.40;;
46931;SDS011;32670;51.464;11.964;2023-08-12T13:18:52;7.50;;;6.90;;
46931;SDS011;32670;51.464;11.964;2023-08-12T13:21:17;7.67;;;6.97;;
46931;SDS011;32670;51.464;11.964;2023-08-12T13:23:43;7.60;;;7.00;;
46931;SDS011;32670;51.464;11.964;2023-08-12T13:26:08;8.13;;;7.33;;
46931;SDS011;32670;51.464;11.964;2023-08-12T13:28:34;8.33;;;7.63;;
46931;SDS011;32670;51.464;11.964;2023-08-12T13:30:59;7.63;;;6.93;;
46931;SDS011;32670;51.464;11.964;2023-08-12T13:33:25;8.33;;;7.63;;
46931;SDS011;32670;51.464;11.964;2023-08-12T13:35:50;8.27;;;7.57;;
46931;SDS011;32670;51.464;11.964;2023-08-12T13:38:16;8.53;;;7.73;;
46931;SDS011;32670;51.464;11.964;2023-08-12T13:40:41;8.10;;;7.37;;
46931;SDS011;32670;51.464;11.964;2023-08-12T13:43:07;7.80;;;7.10;;
46931;SDS011;32670;51.464;11.964;2023-08-12T13:45:32;8.00;;;7.23;;
46931;SDS011;32670;51.464;11.964;2023-08-12T13:47:58;7.63;;;7.03;;
46931;SDS011;32670;51.464;11.964;2023-08-12T13:50:23;8.13;;;7.43;;
46931;SDS011;32670;51.464;11.964;2023-08-12T13:52:50;7.70;;;7.00;;
46931;SDS011;32670;51.464;11.964;2023-08-12T13:55:16;8.57;;;7.77;;
46931;SDS011;32670;51.464;11.964;2023-08-12T13:57:41;7.93;;;7.30;;
46931;SDS011;32670;51.464;11.964;2023-08-12T14:00:07;8.33;;;7.53;;
46931;SDS011;32670;51.464;11.964;2023-08-12T14:02:35;7.70;;;7.00;;
46931;SDS011;32670;51.464;11.964;2023-08-12T14:05:01;8.00;;;7.30;;
46931;SDS011;32670;51.464;11.964;2023-08-12T14:07:27;8.10;;;7.40;;
46931;SDS011;32670;51.464;11.964;2023-08-12T14:09:53;8.23;;;7.43;;
46931;SDS011;32670;51.464;11.964;2023-08-12T14:12:18;8.13;;;7.43;;
46931;SDS011;32670;51.464;11.964;2023-08-12T14:14:44;7.93;;;7.23;;
46931;SDS011;32670;51.464;11.964;2023-08-12T14:17:10;7.97;;;7.27;;
46931;SDS011;32670;51.464;11.964;2023-08-12T14:19:38;8.23;;;7.53;;
46931;SDS011;32670;51.464;11.964;2023-08-12T14:22:04;8.60;;;7.80;;
46931;SDS011;32670;51.464;11.964;2023-08-12T14:24:30;8.07;;;7.30;;
46931;SDS011;32670;51.464;11.964;2023-08-12T14:26:55;8.13;;;7.33;;
46931;SDS011;32670;51.464;11.964;2023-08-12T14:29:21;7.90;;;7.30;;
46931;SDS011;32670;51.464;11.964;2023-08-12T14:31:46;7.73;;;7.03;;
46931;SDS011;32670;51.464;11.964;2023-08-12T14:34:12;7.37;;;6.83;;
46931;SDS011;32670;51.464;11.964;2023-08-12T14:36:37;8.00;;;7.30;;
46931;SDS011;32670;51.464;11.964;2023-08-12T14:39:02;8.30;;;7.50;;